Al Hudaydah, Yemen
Current Conditions -  °F | °C
As of 2:00 AM on Tuesday 21 Oct 2014 (Local Time) from OYHD Reporting Station
Few Clouds Few Clouds  
Wind Chill: 84°   Ceiling: Unl
Heat Index: 94°   Visibility: 6mi
Dew Point: 77°   Wind: 7mph
Humidity: 79%   Direction: 130°SE
Pressure: 29.83"   Gusts: NA
Location:  14.8°N, 42.95°E
Report Text: OYHD 202300Z 13006KT 9999 FEW030 29/25 Q1010
Loading
Personal Weather Stations






























Interactive Weather Map
Tropical Storm Tracking
New forecast layout! Learn more

10-Day Weather Forecast

Advertisements
Track Severe Weather on mobile